sensor_id;sensor_type;location;lat;lon;timestamp;temperature;humidity
52889;DHT22;41413;52.770;6.892;2023-05-16T00:01:46;11.60;99.90
52889;DHT22;41413;52.770;6.892;2023-05-16T00:04:13;11.50;99.90
52889;DHT22;41413;52.770;6.892;2023-05-16T00:06:40;11.40;99.90
52889;DHT22;41413;52.770;6.892;2023-05-16T00:09:07;11.40;99.90
52889;DHT22;41413;52.770;6.892;2023-05-16T00:11:34;11.40;99.90
52889;DHT22;41413;52.770;6.892;2023-05-16T00:14:00;11.40;99.90
52889;DHT22;41413;52.770;6.892;2023-05-16T00:16:28;11.30;99.90
52889;DHT22;41413;52.770;6.892;2023-05-16T00:18:55;11.30;99.90
52889;DHT22;41413;52.770;6.892;2023-05-16T00:21:26;11.20;99.90
52889;DHT22;41413;52.770;6.892;2023-05-16T00:23:53;11.30;99.90
52889;DHT22;41413;52.770;6.892;2023-05-16T00:26:19;11.20;99.90
52889;DHT22;41413;52.770;6.892;2023-05-16T00:28:47;11.20;99.90
52889;DHT22;41413;52.770;6.892;2023-05-16T00:31:13;11.10;99.90
52889;DHT22;41413;52.770;6.892;2023-05-16T00:33:40;11.10;99.90
52889;DHT22;41413;52.770;6.892;2023-05-16T00:36:07;11.10;99.90
52889;DHT22;41413;52.770;6.892;2023-05-16T00:38:33;11.10;99.90
52889;DHT22;41413;52.770;6.892;2023-05-16T00:41:00;11.00;99.90
52889;DHT22;41413;52.770;6.892;2023-05-16T00:43:27;10.90;99.90
52889;DHT22;41413;52.770;6.892;2023-05-16T00:45:53;10.90;99.90
52889;DHT22;41413;52.770;6.892;2023-05-16T00:48:20;10.90;99.90
52889;DHT22;41413;52.770;6.892;2023-05-16T00:50:47;10.90;99.90
52889;DHT22;41413;52.770;6.892;2023-05-16T00:53:14;10.80;99.90
52889;DHT22;41413;52.770;6.892;2023-05-16T00:55:42;10.80;99.90
52889;DHT22;41413;52.770;6.892;2023-05-16T00:58:10;10.70;99.90
52889;DHT22;41413;52.770;6.892;2023-05-16T01:00:37;10.60;99.90
52889;DHT22;41413;52.770;6.892;2023-05-16T01:03:06;10.60;99.90
52889;DHT22;41413;52.770;6.892;2023-05-16T01:05:33;10.50;99.90
52889;DHT22;41413;52.770;6.892;2023-05-16T01:07:59;10.50;99.90
52889;DHT22;41413;52.770;6.892;2023-05-16T01:11:21;10.50;99.90
52889;DHT22;41413;52.770;6.892;2023-05-16T01:13:32;10.40;99.90
52889;DHT22;41413;52.770;6.892;2023-05-16T01:16:15;10.40;99.90
52889;DHT22;41413;52.770;6.892;2023-05-16T01:27:26;10.30;99.90
52889;DHT22;41413;52.770;6.892;2023-05-16T01:29:56;10.30;99.90
52889;DHT22;41413;52.770;6.892;2023-05-16T01:32:22;10.30;99.90
52889;DHT22;41413;52.770;6.892;2023-05-16T01:34:50;10.30;99.90
52889;DHT22;41413;52.770;6.892;2023-05-16T01:37:20;10.20;99.90
52889;DHT22;41413;52.770;6.892;2023-05-16T01:39:58;10.20;99.90
52889;DHT22;41413;52.770;6.892;2023-05-16T01:42:37;10.20;99.90
52889;DHT22;41413;52.770;6.892;2023-05-16T01:45:16;10.30;99.90
52889;DHT22;41413;52.770;6.892;2023-05-16T01:47:50;10.30;99.90
52889;DHT22;41413;52.770;6.892;2023-05-16T01:50:20;10.30;99.90
52889;DHT22;41413;52.770;6.892;2023-05-16T01:52:57;10.20;99.90
52889;DHT22;41413;52.770;6.892;2023-05-16T01:58:10;10.10;99.90
52889;DHT22;41413;52.770;6.892;2023-05-16T02:00:41;10.10;99.90
52889;DHT22;41413;52.770;6.892;2023-05-16T02:03:08;10.00;99.90
52889;DHT22;41413;52.770;6.892;2023-05-16T02:05:35;10.00;99.90
52889;DHT22;41413;52.770;6.892;2023-05-16T02:08:03;9.90;99.90
52889;DHT22;41413;52.770;6.892;2023-05-16T02:10:30;10.00;99.90
52889;DHT22;41413;52.770;6.892;2023-05-16T02:12:56;10.00;99.90
52889;DHT22;41413;52.770;6.892;2023-05-16T02:15:23;9.90;99.90
52889;DHT22;41413;52.770;6.892;2023-05-16T02:17:50;9.90;99.90
52889;DHT22;41413;52.770;6.892;2023-05-16T02:20:17;9.80;99.90
52889;DHT22;41413;52.770;6.892;2023-05-16T02:22:43;9.80;99.90
52889;DHT22;41413;52.770;6.892;2023-05-16T02:25:13;9.80;99.90
52889;DHT22;41413;52.770;6.892;2023-05-16T02:27:40;9.80;99.90
52889;DHT22;41413;52.770;6.892;2023-05-16T02:30:09;9.80;99.90
52889;DHT22;41413;52.770;6.892;2023-05-16T02:32:40;9.70;99.90
52889;DHT22;41413;52.770;6.892;2023-05-16T02:35:07;9.70;99.90
52889;DHT22;41413;52.770;6.892;2023-05-16T02:37:34;9.70;99.90
52889;DHT22;41413;52.770;6.892;2023-05-16T02:40:01;9.60;99.90
52889;DHT22;41413;52.770;6.892;2023-05-16T02:42:29;9.60;99.90
52889;DHT22;41413;52.770;6.892;2023-05-16T02:44:57;9.60;99.90
52889;DHT22;41413;52.770;6.892;2023-05-16T02:47:24;9.50;99.90
52889;DHT22;41413;52.770;6.892;2023-05-16T02:49:51;9.50;99.90
52889;DHT22;41413;52.770;6.892;2023-05-16T02:52:18;9.50;99.90
52889;DHT22;41413;52.770;6.892;2023-05-16T02:54:45;9.50;99.90
52889;DHT22;41413;52.770;6.892;2023-05-16T02:57:25;9.50;99.90
52889;DHT22;41413;52.770;6.892;2023-05-16T02:59:52;9.40;99.90
52889;DHT22;41413;52.770;6.892;2023-05-16T03:02:19;9.40;99.90
52889;DHT22;41413;52.770;6.892;2023-05-16T03:04:45;9.40;99.90
52889;DHT22;41413;52.770;6.892;2023-05-16T03:07:12;9.30;99.90
52889;DHT22;41413;52.770;6.892;2023-05-16T03:09:39;9.30;99.90
52889;DHT22;41413;52.770;6.892;2023-05-16T03:12:05;9.30;99.90
52889;DHT22;41413;52.770;6.892;2023-05-16T03:14:32;9.20;99.90
52889;DHT22;41413;52.770;6.892;2023-05-16T03:16:59;9.20;99.90
52889;DHT22;41413;52.770;6.892;2023-05-16T03:19:26;9.10;99.90
52889;DHT22;41413;52.770;6.892;2023-05-16T03:21:53;9.10;99.90
52889;DHT22;41413;52.770;6.892;2023-05-16T03:24:19;9.10;99.90
52889;DHT22;41413;52.770;6.892;2023-05-16T03:26:48;9.10;99.90
52889;DHT22;41413;52.770;6.892;2023-05-16T03:29:15;9.10;99.90
52889;DHT22;41413;52.770;6.892;2023-05-16T03:31:42;9.10;99.90
52889;DHT22;41413;52.770;6.892;2023-05-16T03:34:08;9.10;99.90
52889;DHT22;41413;52.770;6.892;2023-05-16T03:36:38;9.10;99.90
52889;DHT22;41413;52.770;6.892;2023-05-16T03:39:05;9.20;99.90
52889;DHT22;41413;52.770;6.892;2023-05-16T03:41:31;9.20;99.90
52889;DHT22;41413;52.770;6.892;2023-05-16T03:43:58;9.20;99.90
52889;DHT22;41413;52.770;6.892;2023-05-16T03:46:25;9.30;99.90
52889;DHT22;41413;52.770;6.892;2023-05-16T03:48:52;9.40;99.90
52889;DHT22;41413;52.770;6.892;2023-05-16T03:51:18;9.50;99.90
52889;DHT22;41413;52.770;6.892;2023-05-16T03:53:45;9.40;99.90
52889;DHT22;41413;52.770;6.892;2023-05-16T03:56:12;9.50;99.90
52889;DHT22;41413;52.770;6.892;2023-05-16T03:58:38;9.40;99.90
52889;DHT22;41413;52.770;6.892;2023-05-16T04:01:05;9.40;99.90
52889;DHT22;41413;52.770;6.892;2023-05-16T04:03:32;9.40;99.90
52889;DHT22;41413;52.770;6.892;2023-05-16T04:05:59;9.40;99.90
52889;DHT22;41413;52.770;6.892;2023-05-16T04:08:26;9.50;99.90
52889;DHT22;41413;52.770;6.892;2023-05-16T04:10:53;9.40;99.90
52889;DHT22;41413;52.770;6.892;2023-05-16T04:13:20;9.40;99.90
52889;DHT22;41413;52.770;6.892;2023-05-16T04:15:49;9.40;99.90
52889;DHT22;41413;52.770;6.892;2023-05-16T04:18:17;9.40;99.90
52889;DHT22;41413;52.770;6.892;2023-05-16T04:20:44;9.40;99.90
52889;DHT22;41413;52.770;6.892;2023-05-16T04:23:13;9.40;99.90
52889;DHT22;41413;52.770;6.892;2023-05-16T04:25:39;9.30;99.90
52889;DHT22;41413;52.770;6.892;2023-05-16T04:28:06;9.40;99.90
52889;DHT22;41413;52.770;6.892;2023-05-16T04:30:33;9.20;99.90
52889;DHT22;41413;52.770;6.892;2023-05-16T04:33:00;9.30;99.90
52889;DHT22;41413;52.770;6.892;2023-05-16T04:35:27;9.30;99.90
52889;DHT22;41413;52.770;6.892;2023-05-16T04:37:54;9.30;99.90
52889;DHT22;41413;52.770;6.892;2023-05-16T04:40:21;9.40;99.90
52889;DHT22;41413;52.770;6.892;2023-05-16T04:42:50;9.30;99.90
52889;DHT22;41413;52.770;6.892;2023-05-16T04:45:16;9.40;99.90
52889;DHT22;41413;52.770;6.892;2023-05-16T04:47:43;9.30;99.90
52889;DHT22;41413;52.770;6.892;2023-05-16T04:50:10;9.30;99.90
52889;DHT22;41413;52.770;6.892;2023-05-16T04:52:37;9.30;99.90
52889;DHT22;41413;52.770;6.892;2023-05-16T04:55:04;9.30;99.90
52889;DHT22;41413;52.770;6.892;2023-05-16T04:57:31;9.30;99.90
52889;DHT22;41413;52.770;6.892;2023-05-16T04:59:57;9.30;99.90
52889;DHT22;41413;52.770;6.892;2023-05-16T05:02:24;9.40;99.90
52889;DHT22;41413;52.770;6.892;2023-05-16T05:04:51;9.40;99.90
52889;DHT22;41413;52.770;6.892;2023-05-16T05:07:18;9.40;99.90
52889;DHT22;41413;52.770;6.892;2023-05-16T05:09:45;9.50;99.90
52889;DHT22;41413;52.770;6.892;2023-05-16T05:12:12;9.50;99.90
52889;DHT22;41413;52.770;6.892;2023-05-16T05:14:38;9.50;99.90
52889;DHT22;41413;52.770;6.892;2023-05-16T05:17:05;9.60;99.90
52889;DHT22;41413;52.770;6.892;2023-05-16T05:19:32;9.60;99.90
52889;DHT22;41413;52.770;6.892;2023-05-16T05:21:59;9.60;99.90
52889;DHT22;41413;52.770;6.892;2023-05-16T05:24:26;9.70;99.90
52889;DHT22;41413;52.770;6.892;2023-05-16T05:26:52;9.80;99.90
52889;DHT22;41413;52.770;6.892;2023-05-16T05:29:19;9.80;99.90
52889;DHT22;41413;52.770;6.892;2023-05-16T05:31:46;9.80;99.90
52889;DHT22;41413;52.770;6.892;2023-05-16T05:34:12;9.80;99.90
52889;DHT22;41413;52.770;6.892;2023-05-16T05:36:39;9.90;99.90
52889;DHT22;41413;52.770;6.892;2023-05-16T05:39:06;9.90;99.90
52889;DHT22;41413;52.770;6.892;2023-05-16T05:41:32;9.90;99.90
52889;DHT22;41413;52.770;6.892;2023-05-16T05:43:59;9.90;99.90
52889;DHT22;41413;52.770;6.892;2023-05-16T05:46:26;10.00;99.90
52889;DHT22;41413;52.770;6.892;2023-05-16T05:48:53;10.10;99.90
52889;DHT22;41413;52.770;6.892;2023-05-16T05:51:20;10.10;99.90
52889;DHT22;41413;52.770;6.892;2023-05-16T05:53:47;10.20;99.90
52889;DHT22;41413;52.770;6.892;2023-05-16T05:56:13;10.20;99.90
52889;DHT22;41413;52.770;6.892;2023-05-16T05:58:40;10.30;99.90
52889;DHT22;41413;52.770;6.892;2023-05-16T06:01:07;10.30;99.90
52889;DHT22;41413;52.770;6.892;2023-05-16T06:03:34;10.40;99.90
52889;DHT22;41413;52.770;6.892;2023-05-16T06:06:01;10.60;99.90
52889;DHT22;41413;52.770;6.892;2023-05-16T06:08:27;10.50;99.90
52889;DHT22;41413;52.770;6.892;2023-05-16T06:10:54;10.70;99.90
52889;DHT22;41413;52.770;6.892;2023-05-16T06:13:21;10.70;99.90
52889;DHT22;41413;52.770;6.892;2023-05-16T06:15:51;10.70;99.90
52889;DHT22;41413;52.770;6.892;2023-05-16T06:18:19;10.70;99.90
52889;DHT22;41413;52.770;6.892;2023-05-16T06:20:46;10.80;99.90
52889;DHT22;41413;52.770;6.892;2023-05-16T06:23:12;10.80;99.90
52889;DHT22;41413;52.770;6.892;2023-05-16T06:25:39;10.90;99.90
52889;DHT22;41413;52.770;6.892;2023-05-16T06:28:06;11.00;99.90
52889;DHT22;41413;52.770;6.892;2023-05-16T06:30:32;11.00;99.90
52889;DHT22;41413;52.770;6.892;2023-05-16T06:33:00;11.10;99.90
52889;DHT22;41413;52.770;6.892;2023-05-16T06:35:26;11.30;99.90
52889;DHT22;41413;52.770;6.892;2023-05-16T06:37:53;11.30;99.90
52889;DHT22;41413;52.770;6.892;2023-05-16T06:40:20;11.50;99.90
52889;DHT22;41413;52.770;6.892;2023-05-16T06:42:47;11.60;99.90
52889;DHT22;41413;52.770;6.892;2023-05-16T06:45:14;11.70;99.90
52889;DHT22;41413;52.770;6.892;2023-05-16T06:47:40;11.80;99.90
52889;DHT22;41413;52.770;6.892;2023-05-16T06:50:07;12.10;99.90
52889;DHT22;41413;52.770;6.892;2023-05-16T06:52:36;12.10;99.90
52889;DHT22;41413;52.770;6.892;2023-05-16T06:55:03;12.30;99.90
52889;DHT22;41413;52.770;6.892;2023-05-16T06:57:30;12.40;99.90
52889;DHT22;41413;52.770;6.892;2023-05-16T06:59:57;12.50;99.90
52889;DHT22;41413;52.770;6.892;2023-05-16T07:02:23;12.40;99.90
52889;DHT22;41413;52.770;6.892;2023-05-16T07:04:50;12.40;99.90
52889;DHT22;41413;52.770;6.892;2023-05-16T07:07:17;12.40;99.90
52889;DHT22;41413;52.770;6.892;2023-05-16T07:09:44;12.50;99.90
52889;DHT22;41413;52.770;6.892;2023-05-16T07:12:10;12.50;99.90
52889;DHT22;41413;52.770;6.892;2023-05-16T07:14:37;12.60;99.90
52889;DHT22;41413;52.770;6.892;2023-05-16T07:17:04;12.60;99.90
52889;DHT22;41413;52.770;6.892;2023-05-16T07:19:31;12.70;99.90
52889;DHT22;41413;52.770;6.892;2023-05-16T07:21:57;12.90;99.90
52889;DHT22;41413;52.770;6.892;2023-05-16T07:24:24;12.80;99.90
52889;DHT22;41413;52.770;6.892;2023-05-16T07:26:51;12.70;99.90
52889;DHT22;41413;52.770;6.892;2023-05-16T07:29:17;12.70;99.90
52889;DHT22;41413;52.770;6.892;2023-05-16T07:31:44;12.60;99.90
52889;DHT22;41413;52.770;6.892;2023-05-16T07:34:11;12.60;99.90
52889;DHT22;41413;52.770;6.892;2023-05-16T07:36:38;12.70;99.90
52889;DHT22;41413;52.770;6.892;2023-05-16T07:39:05;12.90;99.90
52889;DHT22;41413;52.770;6.892;2023-05-16T07:41:31;13.00;99.90
52889;DHT22;41413;52.770;6.892;2023-05-16T07:43:58;13.00;99.90
52889;DHT22;41413;52.770;6.892;2023-05-16T07:46:25;12.80;99.90
52889;DHT22;41413;52.770;6.892;2023-05-16T07:48:52;12.70;99.90
52889;DHT22;41413;52.770;6.892;2023-05-16T07:51:19;12.60;99.90
52889;DHT22;41413;52.770;6.892;2023-05-16T07:53:45;12.60;99.90
52889;DHT22;41413;52.770;6.892;2023-05-16T07:56:12;12.50;99.90
52889;DHT22;41413;52.770;6.892;2023-05-16T07:58:40;12.60;99.90
52889;DHT22;41413;52.770;6.892;2023-05-16T08:01:07;12.70;99.90
52889;DHT22;41413;52.770;6.892;2023-05-16T08:03:34;12.60;99.90
52889;DHT22;41413;52.770;6.892;2023-05-16T08:06:02;12.60;99.90
52889;DHT22;41413;52.770;6.892;2023-05-16T08:08:29;12.60;99.90
52889;DHT22;41413;52.770;6.892;2023-05-16T08:10:56;12.70;99.90
52889;DHT22;41413;52.770;6.892;2023-05-16T08:13:22;12.90;99.90
52889;DHT22;41413;52.770;6.892;2023-05-16T08:15:49;13.00;99.90
52889;DHT22;41413;52.770;6.892;2023-05-16T08:18:16;13.00;99.90
52889;DHT22;41413;52.770;6.892;2023-05-16T08:20:46;13.00;99.90
52889;DHT22;41413;52.770;6.892;2023-05-16T08:23:13;13.00;99.90
52889;DHT22;41413;52.770;6.892;2023-05-16T08:25:40;13.10;99.90
52889;DHT22;41413;52.770;6.892;2023-05-16T08:28:07;13.20;99.90
52889;DHT22;41413;52.770;6.892;2023-05-16T08:30:34;13.40;99.90
52889;DHT22;41413;52.770;6.892;2023-05-16T08:33:00;13.80;99.90
52889;DHT22;41413;52.770;6.892;2023-05-16T08:35:30;14.60;99.90
52889;DHT22;41413;52.770;6.892;2023-05-16T09:27:25;20.40;95.40
52889;DHT22;41413;52.770;6.892;2023-05-16T09:29:52;20.80;94.70
52889;DHT22;41413;52.770;6.892;2023-05-16T09:32:18;20.80;91.90
52889;DHT22;41413;52.770;6.892;2023-05-16T09:34:47;20.10;92.60
52889;DHT22;41413;52.770;6.892;2023-05-16T09:37:15;19.70;93.00
52889;DHT22;41413;52.770;6.892;2023-05-16T09:42:16;19.80;93.40
52889;DHT22;41413;52.770;6.892;2023-05-16T09:44:48;19.50;92.60
52889;DHT22;41413;52.770;6.892;2023-05-16T09:47:19;19.70;92.80
52889;DHT22;41413;52.770;6.892;2023-05-16T09:49:52;20.10;93.60
52889;DHT22;41413;52.770;6.892;2023-05-16T09:52:19;20.30;91.50
52889;DHT22;41413;52.770;6.892;2023-05-16T09:54:47;20.70;92.60
52889;DHT22;41413;52.770;6.892;2023-05-16T09:57:20;20.30;90.80
52889;DHT22;41413;52.770;6.892;2023-05-16T09:59:47;20.20;91.10
52889;DHT22;41413;52.770;6.892;2023-05-16T10:02:15;19.40;91.10
52889;DHT22;41413;52.770;6.892;2023-05-16T10:04:42;18.50;90.90
52889;DHT22;41413;52.770;6.892;2023-05-16T10:07:09;18.00;94.00
52889;DHT22;41413;52.770;6.892;2023-05-16T10:09:38;17.30;95.70
52889;DHT22;41413;52.770;6.892;2023-05-16T10:12:07;16.80;98.00
52889;DHT22;41413;52.770;6.892;2023-05-16T10:14:38;16.80;99.00
52889;DHT22;41413;52.770;6.892;2023-05-16T10:17:11;17.50;98.80
52889;DHT22;41413;52.770;6.892;2023-05-16T10:19:40;18.20;98.50
52889;DHT22;41413;52.770;6.892;2023-05-16T10:22:09;18.90;98.00
52889;DHT22;41413;52.770;6.892;2023-05-16T10:24:49;19.20;95.70
52889;DHT22;41413;52.770;6.892;2023-05-16T10:27:17;19.40;96.70
52889;DHT22;41413;52.770;6.892;2023-05-16T10:29:45;19.60;96.70
52889;DHT22;41413;52.770;6.892;2023-05-16T10:32:22;19.30;96.10
52889;DHT22;41413;52.770;6.892;2023-05-16T10:34:50;19.10;95.50
52889;DHT22;41413;52.770;6.892;2023-05-16T10:37:17;18.70;94.20
52889;DHT22;41413;52.770;6.892;2023-05-16T10:39:44;18.00;93.60
52889;DHT22;41413;52.770;6.892;2023-05-16T10:42:11;17.60;93.30
52889;DHT22;41413;52.770;6.892;2023-05-16T10:44:43;17.30;93.40
52889;DHT22;41413;52.770;6.892;2023-05-16T10:47:23;17.10;93.60
52889;DHT22;41413;52.770;6.892;2023-05-16T10:49:50;16.90;93.80
52889;DHT22;41413;52.770;6.892;2023-05-16T10:52:17;16.90;94.10
52889;DHT22;41413;52.770;6.892;2023-05-16T10:54:50;16.90;94.10
52889;DHT22;41413;52.770;6.892;2023-05-16T10:57:22;17.60;94.40
52889;DHT22;41413;52.770;6.892;2023-05-16T10:59:50;18.00;94.40
52889;DHT22;41413;52.770;6.892;2023-05-16T11:02:31;18.30;94.30
52889;DHT22;41413;52.770;6.892;2023-05-16T11:05:00;18.70;94.30
52889;DHT22;41413;52.770;6.892;2023-05-16T11:07:35;19.00;93.90
52889;DHT22;41413;52.770;6.892;2023-05-16T11:10:07;19.30;93.60
52889;DHT22;41413;52.770;6.892;2023-05-16T11:12:47;18.90;92.70
52889;DHT22;41413;52.770;6.892;2023-05-16T11:15:27;18.60;92.70
52889;DHT22;41413;52.770;6.892;2023-05-16T11:20:36;17.60;94.00
52889;DHT22;41413;52.770;6.892;2023-05-16T11:25:52;17.50;93.70
52889;DHT22;41413;52.770;6.892;2023-05-16T11:28:19;17.70;93.90
52889;DHT22;41413;52.770;6.892;2023-05-16T11:30:49;18.10;93.90
52889;DHT22;41413;52.770;6.892;2023-05-16T11:33:16;18.40;93.20
52889;DHT22;41413;52.770;6.892;2023-05-16T11:35:58;18.80;93.50
52889;DHT22;41413;52.770;6.892;2023-05-16T11:38:40;19.20;92.80
52889;DHT22;41413;52.770;6.892;2023-05-16T11:41:09;19.20;92.50
52889;DHT22;41413;52.770;6.892;2023-05-16T11:43:44;19.40;92.10
52889;DHT22;41413;52.770;6.892;2023-05-16T11:46:12;19.60;91.30
52889;DHT22;41413;52.770;6.892;2023-05-16T11:48:39;19.70;91.80
52889;DHT22;41413;52.770;6.892;2023-05-16T11:51:08;19.90;91.70
52889;DHT22;41413;52.770;6.892;2023-05-16T11:53:36;19.80;91.00
52889;DHT22;41413;52.770;6.892;2023-05-16T11:56:05;19.80;91.50
52889;DHT22;41413;52.770;6.892;2023-05-16T11:58:32;19.80;91.10
52889;DHT22;41413;52.770;6.892;2023-05-16T12:00:59;20.10;91.10
52889;DHT22;41413;52.770;6.892;2023-05-16T12:03:29;20.10;90.70
52889;DHT22;41413;52.770;6.892;2023-05-16T12:06:01;19.70;90.10
52889;DHT22;41413;52.770;6.892;2023-05-16T12:08:28;19.40;90.40
52889;DHT22;41413;52.770;6.892;2023-05-16T12:10:55;19.00;91.40
52889;DHT22;41413;52.770;6.892;2023-05-16T12:13:23;18.70;91.00
52889;DHT22;41413;52.770;6.892;2023-05-16T12:15:50;18.60;90.30
52889;DHT22;41413;52.770;6.892;2023-05-16T12:18:18;18.70;90.40
52889;DHT22;41413;52.770;6.892;2023-05-16T12:20:47;18.80;90.20
52889;DHT22;41413;52.770;6.892;2023-05-16T12:23:14;18.70;89.20
52889;DHT22;41413;52.770;6.892;2023-05-16T12:25:45;18.50;89.50
52889;DHT22;41413;52.770;6.892;2023-05-16T12:28:13;18.20;90.30
52889;DHT22;41413;52.770;6.892;2023-05-16T12:30:42;18.00;90.00
52889;DHT22;41413;52.770;6.892;2023-05-16T12:33:10;17.80;90.40
52889;DHT22;41413;52.770;6.892;2023-05-16T12:35:40;17.60;90.50
52889;DHT22;41413;52.770;6.892;2023-05-16T12:38:09;17.40;90.60
52889;DHT22;41413;52.770;6.892;2023-05-16T12:40:37;17.20;90.90
52889;DHT22;41413;52.770;6.892;2023-05-16T12:43:19;17.10;91.50
52889;DHT22;41413;52.770;6.892;2023-05-16T12:45:56;17.10;91.70
52889;DHT22;41413;52.770;6.892;2023-05-16T12:48:31;17.20;92.00
52889;DHT22;41413;52.770;6.892;2023-05-16T12:51:13;17.20;92.30
52889;DHT22;41413;52.770;6.892;2023-05-16T12:53:44;17.10;93.00
52889;DHT22;41413;52.770;6.892;2023-05-16T12:56:27;17.00;93.30
52889;DHT22;41413;52.770;6.892;2023-05-16T12:58:54;16.90;93.70
52889;DHT22;41413;52.770;6.892;2023-05-16T13:01:20;17.00;93.80
52889;DHT22;41413;52.770;6.892;2023-05-16T13:03:47;17.30;94.00
52889;DHT22;41413;52.770;6.892;2023-05-16T13:06:14;17.40;94.00
52889;DHT22;41413;52.770;6.892;2023-05-16T13:08:41;17.50;93.80
52889;DHT22;41413;52.770;6.892;2023-05-16T13:11:08;17.30;94.10
52889;DHT22;41413;52.770;6.892;2023-05-16T13:13:34;17.10;94.70
52889;DHT22;41413;52.770;6.892;2023-05-16T13:16:02;17.00;95.80
52889;DHT22;41413;52.770;6.892;2023-05-16T13:18:29;16.70;96.90
52889;DHT22;41413;52.770;6.892;2023-05-16T13:20:57;16.40;98.20
52889;DHT22;41413;52.770;6.892;2023-05-16T13:23:23;16.20;98.90
52889;DHT22;41413;52.770;6.892;2023-05-16T13:25:51;16.10;98.40
52889;DHT22;41413;52.770;6.892;2023-05-16T13:28:18;16.10;98.80
52889;DHT22;41413;52.770;6.892;2023-05-16T13:30:45;16.30;98.80
52889;DHT22;41413;52.770;6.892;2023-05-16T13:33:12;16.50;99.00
52889;DHT22;41413;52.770;6.892;2023-05-16T13:35:39;16.90;99.20
52889;DHT22;41413;52.770;6.892;2023-05-16T13:38:05;17.30;99.00
52889;DHT22;41413;52.770;6.892;2023-05-16T13:40:32;17.40;98.80
52889;DHT22;41413;52.770;6.892;2023-05-16T13:42:59;17.40;97.10
52889;DHT22;41413;52.770;6.892;2023-05-16T13:45:27;17.10;96.70
52889;DHT22;41413;52.770;6.892;2023-05-16T13:47:54;16.80;96.70
52889;DHT22;41413;52.770;6.892;2023-05-16T13:50:21;16.60;96.60
52889;DHT22;41413;52.770;6.892;2023-05-16T13:52:48;16.50;96.70
52889;DHT22;41413;52.770;6.892;2023-05-16T13:55:14;16.30;96.60
52889;DHT22;41413;52.770;6.892;2023-05-16T13:57:41;16.10;96.00
52889;DHT22;41413;52.770;6.892;2023-05-16T14:00:08;16.00;96.10
52889;DHT22;41413;52.770;6.892;2023-05-16T14:02:41;16.00;96.60
52889;DHT22;41413;52.770;6.892;2023-05-16T14:05:08;16.00;96.60
52889;DHT22;41413;52.770;6.892;2023-05-16T14:07:35;16.10;96.50
52889;DHT22;41413;52.770;6.892;2023-05-16T14:10:02;16.20;96.00
52889;DHT22;41413;52.770;6.892;2023-05-16T14:12:30;16.10;96.00
52889;DHT22;41413;52.770;6.892;2023-05-16T14:14:57;16.00;96.00
52889;DHT22;41413;52.770;6.892;2023-05-16T14:17:25;15.70;96.30
52889;DHT22;41413;52.770;6.892;2023-05-16T14:19:52;15.40;96.60
52889;DHT22;41413;52.770;6.892;2023-05-16T14:22:19;15.40;96.80
52889;DHT22;41413;52.770;6.892;2023-05-16T14:24:46;15.30;97.40
52889;DHT22;41413;52.770;6.892;2023-05-16T14:27:12;15.20;97.50
52889;DHT22;41413;52.770;6.892;2023-05-16T14:29:40;15.10;97.60
52889;DHT22;41413;52.770;6.892;2023-05-16T14:32:09;15.20;97.50
52889;DHT22;41413;52.770;6.892;2023-05-16T14:34:36;15.20;97.50
52889;DHT22;41413;52.770;6.892;2023-05-16T14:37:03;15.40;97.80
52889;DHT22;41413;52.770;6.892;2023-05-16T14:39:30;15.70;97.50
52889;DHT22;41413;52.770;6.892;2023-05-16T14:41:57;15.90;97.20
52889;DHT22;41413;52.770;6.892;2023-05-16T14:44:23;15.90;97.20
52889;DHT22;41413;52.770;6.892;2023-05-16T14:46:50;15.80;97.10
52889;DHT22;41413;52.770;6.892;2023-05-16T14:49:17;15.70;97.10
52889;DHT22;41413;52.770;6.892;2023-05-16T14:51:44;15.70;97.00
52889;DHT22;41413;52.770;6.892;2023-05-16T14:54:14;15.70;97.30
52889;DHT22;41413;52.770;6.892;2023-05-16T14:56:44;15.50;97.50
52889;DHT22;41413;52.770;6.892;2023-05-16T14:59:11;15.50;97.80
52889;DHT22;41413;52.770;6.892;2023-05-16T15:01:38;15.50;97.70
52889;DHT22;41413;52.770;6.892;2023-05-16T15:04:04;15.20;98.40
52889;DHT22;41413;52.770;6.892;2023-05-16T15:06:31;14.90;98.90
52889;DHT22;41413;52.770;6.892;2023-05-16T15:08:58;14.70;99.90
52889;DHT22;41413;52.770;6.892;2023-05-16T15:11:25;14.60;99.90
52889;DHT22;41413;52.770;6.892;2023-05-16T15:13:52;14.50;99.90
52889;DHT22;41413;52.770;6.892;2023-05-16T15:16:19;14.50;99.90
52889;DHT22;41413;52.770;6.892;2023-05-16T15:18:46;14.50;99.90
52889;DHT22;41413;52.770;6.892;2023-05-16T15:21:13;14.60;99.90
52889;DHT22;41413;52.770;6.892;2023-05-16T15:23:40;14.80;99.90
52889;DHT22;41413;52.770;6.892;2023-05-16T15:26:07;15.00;99.90
52889;DHT22;41413;52.770;6.892;2023-05-16T15:28:34;15.10;99.80
52889;DHT22;41413;52.770;6.892;2023-05-16T15:31:02;15.30;99.70
52889;DHT22;41413;52.770;6.892;2023-05-16T15:33:29;15.30;99.40
52889;DHT22;41413;52.770;6.892;2023-05-16T15:35:56;15.20;99.00
52889;DHT22;41413;52.770;6.892;2023-05-16T15:38:23;15.00;99.40
52889;DHT22;41413;52.770;6.892;2023-05-16T15:40:50;14.90;99.90
52889;DHT22;41413;52.770;6.892;2023-05-16T15:43:37;14.60;99.90
52889;DHT22;41413;52.770;6.892;2023-05-16T15:46:05;14.40;99.90
52889;DHT22;41413;52.770;6.892;2023-05-16T15:48:33;14.30;99.90
52889;DHT22;41413;52.770;6.892;2023-05-16T15:51:00;14.20;99.90
52889;DHT22;41413;52.770;6.892;2023-05-16T15:53:26;14.20;99.90
52889;DHT22;41413;52.770;6.892;2023-05-16T15:55:53;14.20;99.90
52889;DHT22;41413;52.770;6.892;2023-05-16T15:58:20;14.10;99.90
52889;DHT22;41413;52.770;6.892;2023-05-16T16:00:48;14.20;99.90
52889;DHT22;41413;52.770;6.892;2023-05-16T16:03:15;14.10;99.90
52889;DHT22;41413;52.770;6.892;2023-05-16T16:05:42;14.10;99.90
52889;DHT22;41413;52.770;6.892;2023-05-16T16:08:09;14.20;99.90
52889;DHT22;41413;52.770;6.892;2023-05-16T16:10:36;14.20;99.90
52889;DHT22;41413;52.770;6.892;2023-05-16T16:13:03;14.20;99.90
52889;DHT22;41413;52.770;6.892;2023-05-16T16:15:31;14.20;99.90
52889;DHT22;41413;52.770;6.892;2023-05-16T16:17:59;13.90;99.90
52889;DHT22;41413;52.770;6.892;2023-05-16T16:20:26;13.90;99.90
52889;DHT22;41413;52.770;6.892;2023-05-16T16:22:53;14.00;99.90
52889;DHT22;41413;52.770;6.892;2023-05-16T16:25:20;13.80;99.90
52889;DHT22;41413;52.770;6.892;2023-05-16T16:27:47;13.80;99.90
52889;DHT22;41413;52.770;6.892;2023-05-16T16:30:14;13.90;99.90
52889;DHT22;41413;52.770;6.892;2023-05-16T16:32:43;13.90;99.90
52889;DHT22;41413;52.770;6.892;2023-05-16T16:35:10;13.90;99.90
52889;DHT22;41413;52.770;6.892;2023-05-16T16:37:37;13.90;99.90
52889;DHT22;41413;52.770;6.892;2023-05-16T16:40:06;13.90;99.90
52889;DHT22;41413;52.770;6.892;2023-05-16T16:42:34;13.90;99.90
52889;DHT22;41413;52.770;6.892;2023-05-16T16:45:04;14.00;99.90
52889;DHT22;41413;52.770;6.892;2023-05-16T16:47:31;14.10;99.90
52889;DHT22;41413;52.770;6.892;2023-05-16T16:49:58;14.10;99.90